createdAt,value
2023-12-30T00:01:55.532Z,98976.61
2023-12-30T00:06:59.077Z,98967.48
2023-12-30T00:12:02.424Z,98967.81
2023-12-30T00:17:05.736Z,98969.70
2023-12-30T00:22:09.126Z,98976.92
2023-12-30T00:27:12.724Z,98976.41
2023-12-30T00:32:15.974Z,98965.63
2023-12-30T00:37:22.922Z,98955.61
2023-12-30T00:42:26.181Z,98950.12
2023-12-30T00:47:29.423Z,98950.13
2023-12-30T00:52:32.667Z,98950.02
2023-12-30T00:57:35.955Z,98954.19
2023-12-30T01:02:39.153Z,98959.54
2023-12-30T01:07:42.403Z,98960.73
2023-12-30T01:12:45.877Z,98953.54
2023-12-30T01:17:49.252Z,98938.66
2023-12-30T01:22:52.908Z,98927.63
2023-12-30T01:27:56.566Z,98924.67
2023-12-30T01:33:00.126Z,98915.84
2023-12-30T01:38:06.036Z,98903.54
2023-12-30T01:43:32.590Z,98899.66
2023-12-30T01:48:37.790Z,98892.11
2023-12-30T01:53:43.404Z,98891.58
2023-12-30T01:58:46.784Z,98884.89
2023-12-30T02:03:51.272Z,98886.14
2023-12-30T02:08:54.818Z,98876.81
2023-12-30T02:13:58.102Z,98872.44
2023-12-30T02:19:01.600Z,98871.91
2023-12-30T02:24:05.171Z,98872.64
2023-12-30T02:29:09.485Z,98880.01
2023-12-30T02:34:18.924Z,98878.00
2023-12-30T02:39:22.434Z,98878.76
2023-12-30T02:44:25.772Z,98878.31
2023-12-30T02:49:32.152Z,98861.89
2023-12-30T02:54:39.143Z,98848.81
2023-12-30T02:59:42.419Z,98836.65
2023-12-30T03:04:45.709Z,98842.17
2023-12-30T03:09:49.094Z,98839.19
2023-12-30T03:14:52.650Z,98831.77
2023-12-30T03:19:56.027Z,98828.05
2023-12-30T03:24:59.281Z,98827.66
2023-12-30T03:30:02.629Z,98825.98
2023-12-30T03:35:07.864Z,98821.23
2023-12-30T03:40:12.005Z,98820.27
2023-12-30T03:45:15.573Z,98832.05
2023-12-30T03:50:19.216Z,98830.13
2023-12-30T03:55:22.695Z,98821.38
2023-12-30T04:00:26.071Z,98818.88
2023-12-30T04:05:29.519Z,98826.60
2023-12-30T04:10:32.836Z,98822.36
2023-12-30T04:15:36.215Z,98829.77
2023-12-30T04:20:39.462Z,98838.12
2023-12-30T04:25:42.705Z,98842.44
2023-12-30T04:30:46.119Z,98836.25
2023-12-30T04:35:49.393Z,98837.98
2023-12-30T04:40:52.630Z,98831.91
2023-12-30T04:45:55.913Z,98827.26
2023-12-30T04:50:59.301Z,98820.27
2023-12-30T04:56:02.662Z,98833.75
2023-12-30T05:01:05.956Z,98844.39
2023-12-30T05:06:09.725Z,98849.02
2023-12-30T05:11:13.097Z,98856.35
2023-12-30T05:16:17.137Z,98861.35
2023-12-30T05:21:20.483Z,98863.61
2023-12-30T05:26:23.901Z,98859.14
2023-12-30T05:31:27.141Z,98842.69
2023-12-30T05:36:30.464Z,98846.54
2023-12-30T05:41:33.720Z,98867.61
2023-12-30T05:46:37.063Z,98876.33
2023-12-30T05:51:46.612Z,98866.87
2023-12-30T05:56:49.851Z,98877.98
2023-12-30T06:01:53.075Z,98895.90
2023-12-30T06:06:56.931Z,98907.07
2023-12-30T06:12:00.287Z,98905.86
2023-12-30T06:17:04.497Z,98897.67
2023-12-30T06:22:08.300Z,98894.61
2023-12-30T06:27:12.098Z,98896.33
2023-12-30T06:32:15.578Z,98903.95
2023-12-30T06:37:19.052Z,98918.40
2023-12-30T06:42:22.362Z,98919.86
2023-12-30T06:47:25.678Z,98925.06
2023-12-30T06:52:29.157Z,98925.06
2023-12-30T06:57:32.600Z,98923.13
2023-12-30T07:02:36.371Z,98920.77
2023-12-30T07:07:39.762Z,98934.37
2023-12-30T07:12:43.181Z,98946.06
2023-12-30T07:17:49.378Z,98950.07
2023-12-30T07:22:52.965Z,98958.76
2023-12-30T07:27:56.266Z,98970.71
2023-12-30T07:33:00.527Z,98964.13
2023-12-30T07:38:05.050Z,98965.98
2023-12-30T07:43:09.966Z,98974.74
2023-12-30T07:48:14.614Z,98997.41
2023-12-30T07:53:17.905Z,99013.95
2023-12-30T07:58:21.229Z,99022.30
2023-12-30T08:03:25.654Z,99029.38
2023-12-30T08:08:28.989Z,99029.13
2023-12-30T08:13:32.514Z,99036.70
2023-12-30T08:18:36.416Z,99044.94
2023-12-30T08:23:39.734Z,99055.88
2023-12-30T08:28:43.580Z,99070.98
2023-12-30T08:33:48.784Z,99078.48
2023-12-30T08:38:52.107Z,99081.55
2023-12-30T08:43:57.870Z,99071.94
2023-12-30T08:49:01.699Z,99066.29
2023-12-30T08:54:05.593Z,99067.06
2023-12-30T08:59:09.109Z,99067.55
2023-12-30T09:04:12.516Z,99071.73
2023-12-30T09:09:15.894Z,99075.85
2023-12-30T09:14:19.200Z,99082.09
2023-12-30T09:19:23.415Z,99074.54
2023-12-30T09:24:26.756Z,99073.14
2023-12-30T09:29:30.222Z,99069.78
2023-12-30T09:34:41.354Z,99068.17
2023-12-30T09:39:48.488Z,99066.30
2023-12-30T09:44:52.325Z,99062.98
2023-12-30T09:49:57.250Z,99058.45
2023-12-30T09:55:00.787Z,99058.66
2023-12-30T10:00:07.010Z,99062.11
2023-12-30T10:05:10.598Z,99066.77
2023-12-30T10:10:13.941Z,99066.42
2023-12-30T10:15:17.298Z,99068.66
2023-12-30T10:20:24.642Z,99064.58
2023-12-30T10:25:28.239Z,99064.67
2023-12-30T10:30:32.712Z,99065.16
2023-12-30T10:35:36.471Z,99076.10
2023-12-30T10:40:41.483Z,99070.79
2023-12-30T10:45:46.545Z,99073.81
2023-12-30T10:50:54.971Z,99077.90
2023-12-30T10:56:02.397Z,99083.08
2023-12-30T11:01:09.016Z,99078.23
2023-12-30T11:06:30.639Z,99081.52
2023-12-30T11:11:34.228Z,99091.21
2023-12-30T11:16:37.678Z,99089.16
2023-12-30T11:21:47.863Z,99093.25
2023-12-30T11:26:54.850Z,99095.91
2023-12-30T11:32:00.576Z,99099.30
2023-12-30T11:37:08.368Z,99102.70
2023-12-30T11:42:12.860Z,99107.66
2023-12-30T11:47:22.594Z,99108.07
2023-12-30T11:52:25.909Z,99112.80
2023-12-30T11:57:29.327Z,99123.39
2023-12-30T12:02:32.732Z,99133.05
2023-12-30T12:07:36.507Z,99135.64
2023-12-30T12:12:46.898Z,99150.30
2023-12-30T12:17:51.287Z,99157.68
2023-12-30T12:22:55.981Z,99158.80
2023-12-30T12:27:59.435Z,99167.73
2023-12-30T12:33:03.566Z,99174.70
2023-12-30T12:38:07.284Z,99182.33
2023-12-30T12:43:10.865Z,99193.63
2023-12-30T12:48:15.293Z,99210.89
2023-12-30T12:53:18.702Z,99216.75
2023-12-30T12:58:54.042Z,99215.36
2023-12-30T13:03:59.877Z,99224.08
2023-12-30T13:09:21.269Z,99225.79
2023-12-30T13:14:28.367Z,99235.48
2023-12-30T13:19:32.101Z,99237.34
2023-12-30T13:24:36.218Z,99242.52
2023-12-30T13:29:40.626Z,99256.21
2023-12-30T13:34:45.495Z,99265.23
2023-12-30T13:40:02.599Z,99269.42
2023-12-30T13:45:08.419Z,99277.19
2023-12-30T13:50:27.952Z,99284.11
2023-12-30T13:55:36.088Z,99293.90
2023-12-30T14:00:41.946Z,99297.02
2023-12-30T14:05:48.894Z,99305.12
2023-12-30T14:10:55.299Z,99310.33
2023-12-30T14:15:59.063Z,99319.98
2023-12-30T14:21:02.280Z,99322.20
2023-12-30T14:26:06.081Z,99333.61
2023-12-30T14:31:10.858Z,99338.52
2023-12-30T14:36:14.437Z,99345.96
2023-12-30T14:41:17.797Z,99346.58
2023-12-30T14:46:21.812Z,99348.86
2023-12-30T14:51:25.546Z,99355.87
2023-12-30T14:56:29.474Z,99361.09
2023-12-30T15:01:33.097Z,99365.86
2023-12-30T15:06:36.601Z,99374.65
2023-12-30T15:11:39.932Z,99378.30
2023-12-30T15:16:43.815Z,99379.04
2023-12-30T15:21:49.082Z,99385.95
2023-12-30T15:26:53.544Z,99387.73
2023-12-30T15:31:57.028Z,99397.36
2023-12-30T15:37:00.371Z,99412.38
2023-12-30T15:42:04.188Z,99424.58
2023-12-30T15:47:11.099Z,99433.15
2023-12-30T15:52:14.555Z,99435.42
2023-12-30T15:57:17.860Z,99436.33
2023-12-30T16:02:21.120Z,99435.75
2023-12-30T16:07:24.491Z,99441.08
2023-12-30T16:12:28.028Z,99451.09
2023-12-30T16:17:31.615Z,99454.16
2023-12-30T16:22:35.438Z,99460.44
2023-12-30T16:27:38.756Z,99460.64
2023-12-30T16:32:42.184Z,99460.22
2023-12-30T16:37:46.573Z,99462.68
2023-12-30T16:42:50.067Z,99464.94
2023-12-30T16:47:53.946Z,99470.92
2023-12-30T16:52:57.241Z,99476.46
2023-12-30T16:58:00.890Z,99482.77
2023-12-30T17:03:04.857Z,99486.89
2023-12-30T17:08:09.320Z,99493.39
2023-12-30T17:13:13.212Z,99499.54
2023-12-30T17:18:16.563Z,99493.02
2023-12-30T17:23:19.979Z,99492.65
2023-12-30T17:28:23.336Z,99502.89
2023-12-30T17:33:26.721Z,99513.19
2023-12-30T17:38:30.112Z,99517.05
2023-12-30T17:43:33.426Z,99528.02
2023-12-30T17:48:36.945Z,99527.77
2023-12-30T17:53:40.202Z,99537.74
2023-12-30T17:58:43.532Z,99552.90
2023-12-30T18:03:46.877Z,99573.44
2023-12-30T18:08:50.444Z,99586.91
2023-12-30T18:13:53.839Z,99608.50
2023-12-30T18:18:57.206Z,99612.80
2023-12-30T18:24:00.646Z,99611.27
2023-12-30T18:29:05.044Z,99608.66
2023-12-30T18:34:08.465Z,99597.31
2023-12-30T18:39:11.878Z,99594.09
2023-12-30T18:44:15.257Z,99589.39
2023-12-30T18:49:20.849Z,99596.82
2023-12-30T18:54:32.418Z,99606.42
2023-12-30T18:59:35.750Z,99611.05
2023-12-30T19:04:43.695Z,99627.34
2023-12-30T19:09:46.997Z,99637.37
2023-12-30T19:14:50.291Z,99642.21
2023-12-30T19:19:53.647Z,99650.04
2023-12-30T19:24:56.948Z,99657.34
2023-12-30T19:30:00.583Z,99660.40
2023-12-30T19:35:05.328Z,99660.39
2023-12-30T19:40:09.986Z,99658.60
2023-12-30T19:45:13.473Z,99663.09
2023-12-30T19:50:16.964Z,99668.72
2023-12-30T19:55:20.351Z,99681.45
2023-12-30T20:00:25.685Z,99693.36
2023-12-30T20:05:29.163Z,99707.94
2023-12-30T20:10:35.372Z,99709.33
2023-12-30T20:15:59.810Z,99717.98
2023-12-30T20:21:06.705Z,99726.23
2023-12-30T20:26:10.134Z,99727.73
2023-12-30T20:31:18.483Z,99724.99
2023-12-30T20:36:22.404Z,99731.73
2023-12-30T20:41:25.741Z,99730.55
2023-12-30T20:46:31.310Z,99735.89
2023-12-30T20:51:34.797Z,99744.77
2023-12-30T20:56:38.277Z,99752.95
2023-12-30T21:01:42.392Z,99759.35
2023-12-30T21:06:47.083Z,99761.26
2023-12-30T21:11:50.411Z,99767.02
2023-12-30T21:16:56.075Z,99763.46
2023-12-30T21:22:02.855Z,99769.73
2023-12-30T21:27:09.888Z,99770.27
2023-12-30T21:32:13.216Z,99773.77
2023-12-30T21:37:16.829Z,99778.65
2023-12-30T21:42:20.275Z,99781.59
2023-12-30T21:47:23.569Z,99786.45
2023-12-30T21:52:26.809Z,99788.37
2023-12-30T21:57:30.157Z,99792.74
2023-12-30T22:02:35.504Z,99800.48
2023-12-30T22:07:43.961Z,99807.10
2023-12-30T22:12:47.432Z,99810.44
2023-12-30T22:17:50.933Z,99819.32
2023-12-30T22:22:54.532Z,99821.52
2023-12-30T22:27:57.879Z,99827.97
2023-12-30T22:33:01.821Z,99825.02
2023-12-30T22:38:05.625Z,99829.90
2023-12-30T22:43:13.238Z,99828.52
2023-12-30T22:48:17.890Z,99835.98
2023-12-30T22:53:21.244Z,99837.04
2023-12-30T22:58:24.618Z,99837.98
2023-12-30T23:03:28.113Z,99831.33
2023-12-30T23:08:32.110Z,99842.19
2023-12-30T23:13:36.160Z,99847.46
2023-12-30T23:18:44.561Z,99860.53
2023-12-30T23:23:48.728Z,99868.59
2023-12-30T23:28:52.319Z,99868.48
2023-12-30T23:33:56.489Z,99871.40
2023-12-30T23:39:03.054Z,99874.50
2023-12-30T23:44:06.702Z,99874.74
2023-12-30T23:49:10.984Z,99874.94
2023-12-30T23:54:17.293Z,99866.42
